sensor_id;sensor_type;location;lat;lon;timestamp;pressure;altitude;pressure_sealevel;temperature;humidity
5755;BME280;2902;42.130;24.732;2023-02-11T00:00:22;101420.38;;;-2.45;60.98
5755;BME280;2902;42.130;24.732;2023-02-11T00:02:49;101423.91;;;-2.46;61.15
5755;BME280;2902;42.130;24.732;2023-02-11T00:05:16;101414.72;;;-2.54;61.63
5755;BME280;2902;42.130;24.732;2023-02-11T00:07:42;101430.84;;;-2.46;60.89
5755;BME280;2902;42.130;24.732;2023-02-11T00:10:11;101429.94;;;-2.45;60.45
5755;BME280;2902;42.130;24.732;2023-02-11T00:12:37;101436.31;;;-2.52;61.23
5755;BME280;2902;42.130;24.732;2023-02-11T00:15:06;101437.66;;;-2.62;61.72
5755;BME280;2902;42.130;24.732;2023-02-11T00:17:34;101434.66;;;-2.73;62.46
5755;BME280;2902;42.130;24.732;2023-02-11T00:20:01;101438.41;;;-2.80;62.38
5755;BME280;2902;42.130;24.732;2023-02-11T00:22:27;101439.13;;;-2.77;63.15
5755;BME280;2902;42.130;24.732;2023-02-11T00:24:54;101443.22;;;-2.71;63.36
5755;BME280;2902;42.130;24.732;2023-02-11T00:27:22;101438.00;;;-2.71;63.30
5755;BME280;2902;42.130;24.732;2023-02-11T00:29:49;101431.00;;;-2.69;62.82
5755;BME280;2902;42.130;24.732;2023-02-11T00:32:16;101430.88;;;-2.66;63.16
5755;BME280;2902;42.130;24.732;2023-02-11T00:34:42;101425.94;;;-2.72;63.12
5755;BME280;2902;42.130;24.732;2023-02-11T00:37:09;101426.06;;;-2.75;63.11
5755;BME280;2902;42.130;24.732;2023-02-11T00:39:36;101429.56;;;-2.76;63.36
5755;BME280;2902;42.130;24.732;2023-02-11T00:42:03;101428.66;;;-2.75;63.46
5755;BME280;2902;42.130;24.732;2023-02-11T00:44:31;101432.88;;;-2.73;63.05
5755;BME280;2902;42.130;24.732;2023-02-11T00:46:58;101433.84;;;-2.75;63.71
5755;BME280;2902;42.130;24.732;2023-02-11T00:49:24;101419.16;;;-2.76;64.01
5755;BME280;2902;42.130;24.732;2023-02-11T00:51:51;101425.88;;;-2.71;63.29
5755;BME280;2902;42.130;24.732;2023-02-11T00:54:18;101435.16;;;-2.65;62.92
5755;BME280;2902;42.130;24.732;2023-02-11T00:56:44;101397.78;;;-2.83;63.00
5755;BME280;2902;42.130;24.732;2023-02-11T00:59:11;101430.22;;;-2.71;62.58
5755;BME280;2902;42.130;24.732;2023-02-11T01:01:39;101422.56;;;-2.74;63.51
5755;BME280;2902;42.130;24.732;2023-02-11T01:04:06;101423.28;;;-2.71;63.82
5755;BME280;2902;42.130;24.732;2023-02-11T01:06:32;101416.22;;;-2.69;63.62
5755;BME280;2902;42.130;24.732;2023-02-11T01:08:59;101420.31;;;-2.63;63.46
5755;BME280;2902;42.130;24.732;2023-02-11T01:11:26;101416.84;;;-2.62;63.78
5755;BME280;2902;42.130;24.732;2023-02-11T01:13:52;101414.88;;;-2.57;63.21
5755;BME280;2902;42.130;24.732;2023-02-11T01:16:20;101411.22;;;-2.53;62.81
5755;BME280;2902;42.130;24.732;2023-02-11T01:18:48;101404.59;;;-2.60;62.99
5755;BME280;2902;42.130;24.732;2023-02-11T01:21:15;101406.16;;;-2.56;62.93
5755;BME280;2902;42.130;24.732;2023-02-11T01:23:41;101407.72;;;-2.52;62.91
5755;BME280;2902;42.130;24.732;2023-02-11T01:26:08;101397.25;;;-2.51;62.63
5755;BME280;2902;42.130;24.732;2023-02-11T01:28:35;101402.22;;;-2.46;62.39
5755;BME280;2902;42.130;24.732;2023-02-11T01:31:02;101398.88;;;-2.48;63.48
5755;BME280;2902;42.130;24.732;2023-02-11T01:33:29;101401.28;;;-2.44;62.73
5755;BME280;2902;42.130;24.732;2023-02-11T01:36:00;101397.94;;;-2.47;63.18
5755;BME280;2902;42.130;24.732;2023-02-11T01:38:28;101393.03;;;-2.53;63.25
5755;BME280;2902;42.130;24.732;2023-02-11T01:40:56;101386.91;;;-2.52;63.14
5755;BME280;2902;42.130;24.732;2023-02-11T01:43:25;101379.84;;;-2.50;63.12
5755;BME280;2902;42.130;24.732;2023-02-11T01:46:04;101381.41;;;-2.46;62.67
5755;BME280;2902;42.130;24.732;2023-02-11T01:48:40;101380.38;;;-2.42;62.29
5755;BME280;2902;42.130;24.732;2023-02-11T01:51:12;101380.31;;;-2.41;61.94
5755;BME280;2902;42.130;24.732;2023-02-11T01:53:39;101357.50;;;-2.54;62.00
5755;BME280;2902;42.130;24.732;2023-02-11T01:56:25;101372.00;;;-2.49;62.61
5755;BME280;2902;42.130;24.732;2023-02-11T01:59:12;101374.53;;;-2.47;62.81
5755;BME280;2902;42.130;24.732;2023-02-11T02:01:41;101366.38;;;-2.58;63.69
5755;BME280;2902;42.130;24.732;2023-02-11T02:04:14;101385.22;;;-2.53;63.81
5755;BME280;2902;42.130;24.732;2023-02-11T02:06:48;101371.41;;;-2.55;64.02
5755;BME280;2902;42.130;24.732;2023-02-11T02:09:19;101379.84;;;-2.50;63.81
5755;BME280;2902;42.130;24.732;2023-02-11T02:11:47;101378.19;;;-2.51;63.68
5755;BME280;2902;42.130;24.732;2023-02-11T02:14:15;101374.81;;;-2.53;63.89
5755;BME280;2902;42.130;24.732;2023-02-11T02:16:42;101367.31;;;-2.61;63.56
5755;BME280;2902;42.130;24.732;2023-02-11T02:19:37;101373.91;;;-2.52;63.49
5755;BME280;2902;42.130;24.732;2023-02-11T02:22:33;101368.56;;;-2.49;63.36
5755;BME280;2902;42.130;24.732;2023-02-11T02:25:43;101371.28;;;-2.52;63.37
5755;BME280;2902;42.130;24.732;2023-02-11T02:28:35;101369.75;;;-2.56;63.34
5755;BME280;2902;42.130;24.732;2023-02-11T02:34:08;101368.72;;;-2.72;63.23
5755;BME280;2902;42.130;24.732;2023-02-11T02:36:42;101373.22;;;-2.76;63.69
5755;BME280;2902;42.130;24.732;2023-02-11T02:39:17;101363.94;;;-2.81;63.56
5755;BME280;2902;42.130;24.732;2023-02-11T02:41:47;101382.38;;;-2.87;63.45
5755;BME280;2902;42.130;24.732;2023-02-11T02:44:14;101375.25;;;-3.02;63.87
5755;BME280;2902;42.130;24.732;2023-02-11T02:46:41;101381.47;;;-3.06;64.99
5755;BME280;2902;42.130;24.732;2023-02-11T02:49:12;101379.97;;;-3.12;65.07
5755;BME280;2902;42.130;24.732;2023-02-11T02:51:55;101380.22;;;-3.18;65.07
5755;BME280;2902;42.130;24.732;2023-02-11T02:54:40;101402.50;;;-3.12;65.58
5755;BME280;2902;42.130;24.732;2023-02-11T02:57:24;101396.28;;;-3.08;65.67
5755;BME280;2902;42.130;24.732;2023-02-11T03:00:04;101365.53;;;-3.19;65.22
5755;BME280;2902;42.130;24.732;2023-02-11T03:02:35;101391.75;;;-3.03;65.21
5755;BME280;2902;42.130;24.732;2023-02-11T03:05:09;101376.34;;;-3.08;65.39
5755;BME280;2902;42.130;24.732;2023-02-11T03:07:42;101386.63;;;-3.05;65.74
5755;BME280;2902;42.130;24.732;2023-02-11T03:10:13;101388.41;;;-3.07;66.02
5755;BME280;2902;42.130;24.732;2023-02-11T03:12:43;101389.22;;;-3.05;66.06
5755;BME280;2902;42.130;24.732;2023-02-11T03:15:12;101395.50;;;-3.10;65.66
5755;BME280;2902;42.130;24.732;2023-02-11T03:17:43;101388.22;;;-3.22;65.82
5755;BME280;2902;42.130;24.732;2023-02-11T03:20:14;101394.63;;;-3.31;65.46
5755;BME280;2902;42.130;24.732;2023-02-11T03:22:47;101389.94;;;-3.43;66.94
5755;BME280;2902;42.130;24.732;2023-02-11T03:25:15;101395.06;;;-3.41;65.90
5755;BME280;2902;42.130;24.732;2023-02-11T03:27:46;101384.03;;;-3.46;66.83
5755;BME280;2902;42.130;24.732;2023-02-11T03:30:19;101376.06;;;-3.63;67.26
5755;BME280;2902;42.130;24.732;2023-02-11T03:32:49;101386.44;;;-3.63;67.94
5755;BME280;2902;42.130;24.732;2023-02-11T03:35:20;101388.44;;;-3.70;67.37
5755;BME280;2902;42.130;24.732;2023-02-11T03:37:50;101388.00;;;-3.81;67.94
5755;BME280;2902;42.130;24.732;2023-02-11T03:40:20;101394.94;;;-3.81;68.50
5755;BME280;2902;42.130;24.732;2023-02-11T03:42:53;101394.88;;;-3.80;68.83
5755;BME280;2902;42.130;24.732;2023-02-11T03:45:23;101398.22;;;-3.76;68.48
5755;BME280;2902;42.130;24.732;2023-02-11T03:47:54;101392.91;;;-3.73;68.76
5755;BME280;2902;42.130;24.732;2023-02-11T03:50:23;101380.78;;;-3.73;68.04
5755;BME280;2902;42.130;24.732;2023-02-11T03:52:52;101392.34;;;-3.60;67.62
5755;BME280;2902;42.130;24.732;2023-02-11T03:55:22;101396.59;;;-3.57;67.33
5755;BME280;2902;42.130;24.732;2023-02-11T03:57:50;101390.06;;;-3.67;67.30
5755;BME280;2902;42.130;24.732;2023-02-11T04:00:17;101389.59;;;-3.77;67.88
5755;BME280;2902;42.130;24.732;2023-02-11T04:02:44;101386.69;;;-3.69;67.90
5755;BME280;2902;42.130;24.732;2023-02-11T04:05:13;101387.44;;;-3.66;67.34
5755;BME280;2902;42.130;24.732;2023-02-11T04:07:42;101394.34;;;-3.66;67.13
5755;BME280;2902;42.130;24.732;2023-02-11T04:10:10;101393.31;;;-3.84;67.24
5755;BME280;2902;42.130;24.732;2023-02-11T04:12:37;101403.34;;;-3.96;67.49
5755;BME280;2902;42.130;24.732;2023-02-11T04:15:04;101404.00;;;-3.91;68.41
5755;BME280;2902;42.130;24.732;2023-02-11T04:17:31;101398.16;;;-3.96;68.26
5755;BME280;2902;42.130;24.732;2023-02-11T04:19:58;101396.75;;;-4.05;68.56
5755;BME280;2902;42.130;24.732;2023-02-11T04:22:25;101394.88;;;-4.01;68.64
5755;BME280;2902;42.130;24.732;2023-02-11T04:24:53;101383.59;;;-4.00;69.09
5755;BME280;2902;42.130;24.732;2023-02-11T04:27:19;101384.84;;;-4.10;68.84
5755;BME280;2902;42.130;24.732;2023-02-11T04:29:46;101387.69;;;-4.16;69.24
5755;BME280;2902;42.130;24.732;2023-02-11T04:32:13;101383.72;;;-4.26;69.36
5755;BME280;2902;42.130;24.732;2023-02-11T04:34:40;101386.19;;;-4.23;69.54
5755;BME280;2902;42.130;24.732;2023-02-11T04:37:06;101391.22;;;-4.19;69.34
5755;BME280;2902;42.130;24.732;2023-02-11T04:39:34;101389.25;;;-4.35;69.05
5755;BME280;2902;42.130;24.732;2023-02-11T04:42:02;101383.78;;;-4.51;69.69
5755;BME280;2902;42.130;24.732;2023-02-11T04:44:29;101379.91;;;-4.62;70.33
5755;BME280;2902;42.130;24.732;2023-02-11T04:46:56;101376.50;;;-4.64;70.81
5755;BME280;2902;42.130;24.732;2023-02-11T04:49:22;101371.56;;;-4.70;70.74
5755;BME280;2902;42.130;24.732;2023-02-11T04:51:49;101379.56;;;-4.78;70.96
5755;BME280;2902;42.130;24.732;2023-02-11T04:54:16;101370.50;;;-4.89;71.54
5755;BME280;2902;42.130;24.732;2023-02-11T04:56:43;101373.50;;;-5.01;71.74
5755;BME280;2902;42.130;24.732;2023-02-11T04:59:11;101372.13;;;-5.11;72.06
5755;BME280;2902;42.130;24.732;2023-02-11T05:01:38;101375.56;;;-5.11;72.21
5755;BME280;2902;42.130;24.732;2023-02-11T05:04:04;101370.47;;;-5.12;72.25
5755;BME280;2902;42.130;24.732;2023-02-11T05:06:31;101375.88;;;-5.20;72.51
5755;BME280;2902;42.130;24.732;2023-02-11T05:08:58;101367.06;;;-5.14;72.78
5755;BME280;2902;42.130;24.732;2023-02-11T05:11:25;101350.59;;;-5.13;73.67
5755;BME280;2902;42.130;24.732;2023-02-11T05:13:52;101372.41;;;-4.94;72.52
5755;BME280;2902;42.130;24.732;2023-02-11T05:16:20;101365.13;;;-4.83;72.78
5755;BME280;2902;42.130;24.732;2023-02-11T05:18:47;101371.56;;;-4.70;72.34
5755;BME280;2902;42.130;24.732;2023-02-11T05:21:16;101371.97;;;-4.59;71.41
5755;BME280;2902;42.130;24.732;2023-02-11T05:24:04;101377.63;;;-4.48;70.81
5755;BME280;2902;42.130;24.732;2023-02-11T05:26:31;101369.72;;;-4.44;70.10
5755;BME280;2902;42.130;24.732;2023-02-11T05:28:58;101385.78;;;-4.34;69.88
5755;BME280;2902;42.130;24.732;2023-02-11T05:31:26;101376.84;;;-4.27;69.78
5755;BME280;2902;42.130;24.732;2023-02-11T05:33:53;101379.50;;;-4.29;69.43
5755;BME280;2902;42.130;24.732;2023-02-11T05:36:20;101387.22;;;-4.27;70.55
5755;BME280;2902;42.130;24.732;2023-02-11T05:38:47;101385.19;;;-4.19;70.75
5755;BME280;2902;42.130;24.732;2023-02-11T05:41:14;101382.13;;;-4.07;69.33
5755;BME280;2902;42.130;24.732;2023-02-11T05:43:41;101385.44;;;-4.04;68.88
5755;BME280;2902;42.130;24.732;2023-02-11T05:46:08;101391.94;;;-4.15;70.02
5755;BME280;2902;42.130;24.732;2023-02-11T05:48:36;101384.97;;;-4.13;71.06
5755;BME280;2902;42.130;24.732;2023-02-11T05:51:03;101380.66;;;-4.14;70.51
5755;BME280;2902;42.130;24.732;2023-02-11T05:53:30;101390.25;;;-3.93;69.34
5755;BME280;2902;42.130;24.732;2023-02-11T05:55:57;101392.72;;;-3.90;69.13
5755;BME280;2902;42.130;24.732;2023-02-11T05:58:23;101389.34;;;-3.92;68.78
5755;BME280;2902;42.130;24.732;2023-02-11T06:00:50;101394.44;;;-3.89;69.13
5755;BME280;2902;42.130;24.732;2023-02-11T06:03:17;101388.44;;;-3.70;69.39
5755;BME280;2902;42.130;24.732;2023-02-11T06:05:45;101399.59;;;-3.46;68.19
5755;BME280;2902;42.130;24.732;2023-02-11T06:08:12;101400.16;;;-3.38;67.99
5755;BME280;2902;42.130;24.732;2023-02-11T06:10:38;101376.81;;;-3.40;66.92
5755;BME280;2902;42.130;24.732;2023-02-11T06:13:07;101397.91;;;-3.26;66.25
5755;BME280;2902;42.130;24.732;2023-02-11T06:15:34;101394.97;;;-3.18;66.03
5755;BME280;2902;42.130;24.732;2023-02-11T06:18:00;101385.19;;;-3.12;65.74
5755;BME280;2902;42.130;24.732;2023-02-11T06:20:27;101387.31;;;-3.01;65.68
5755;BME280;2902;42.130;24.732;2023-02-11T06:22:56;101393.44;;;-2.82;65.41
5755;BME280;2902;42.130;24.732;2023-02-11T06:25:22;101389.00;;;-2.60;64.29
5755;BME280;2902;42.130;24.732;2023-02-11T06:27:49;101394.53;;;-2.29;63.27
5755;BME280;2902;42.130;24.732;2023-02-11T06:30:16;101390.16;;;-1.73;62.72
5755;BME280;2902;42.130;24.732;2023-02-11T06:32:42;101395.69;;;-1.27;60.09
5755;BME280;2902;42.130;24.732;2023-02-11T06:35:09;101404.59;;;-1.14;58.23
5755;BME280;2902;42.130;24.732;2023-02-11T06:37:36;101403.75;;;-1.14;58.80
5755;BME280;2902;42.130;24.732;2023-02-11T06:40:05;101405.50;;;-0.81;58.53
5755;BME280;2902;42.130;24.732;2023-02-11T06:42:32;101399.84;;;-0.39;56.13
5755;BME280;2902;42.130;24.732;2023-02-11T06:44:58;101406.63;;;-0.20;54.56
5755;BME280;2902;42.130;24.732;2023-02-11T06:47:25;101387.03;;;0.04;54.41
5755;BME280;2902;42.130;24.732;2023-02-11T06:49:52;101405.72;;;0.59;53.15
5755;BME280;2902;42.130;24.732;2023-02-11T06:52:18;101402.63;;;1.12;52.23
5755;BME280;2902;42.130;24.732;2023-02-11T06:54:45;101396.47;;;1.56;48.95
5755;BME280;2902;42.130;24.732;2023-02-11T06:57:13;101385.97;;;1.84;49.21
5755;BME280;2902;42.130;24.732;2023-02-11T06:59:40;101394.16;;;2.20;46.60
5755;BME280;2902;42.130;24.732;2023-02-11T07:02:08;101392.22;;;2.50;46.59
5755;BME280;2902;42.130;24.732;2023-02-11T07:04:34;101400.53;;;2.83;45.95
5755;BME280;2902;42.130;24.732;2023-02-11T07:07:01;101394.91;;;3.14;44.43
5755;BME280;2902;42.130;24.732;2023-02-11T07:09:28;101386.00;;;3.29;43.26
5755;BME280;2902;42.130;24.732;2023-02-11T07:11:55;101388.66;;;3.54;43.36
5755;BME280;2902;42.130;24.732;2023-02-11T07:14:23;101382.72;;;3.88;41.73
5755;BME280;2902;42.130;24.732;2023-02-11T07:16:50;101386.75;;;3.81;41.77
5755;BME280;2902;42.130;24.732;2023-02-11T07:19:17;101384.13;;;3.56;41.74
5755;BME280;2902;42.130;24.732;2023-02-11T07:21:43;101389.13;;;3.22;42.96
5755;BME280;2902;42.130;24.732;2023-02-11T07:24:11;101383.69;;;3.12;45.10
5755;BME280;2902;42.130;24.732;2023-02-11T07:26:38;101377.28;;;3.54;54.02
5755;BME280;2902;42.130;24.732;2023-02-11T07:29:05;101365.13;;;3.65;61.66
5755;BME280;2902;42.130;24.732;2023-02-11T07:31:33;101382.47;;;4.16;43.86
5755;BME280;2902;42.130;24.732;2023-02-11T07:34:01;101375.53;;;4.62;41.00
5755;BME280;2902;42.130;24.732;2023-02-11T07:36:29;101367.25;;;4.79;40.07
5755;BME280;2902;42.130;24.732;2023-02-11T07:38:57;101369.84;;;4.68;39.97
5755;BME280;2902;42.130;24.732;2023-02-11T07:41:24;101361.59;;;5.07;39.31
5755;BME280;2902;42.130;24.732;2023-02-11T07:43:52;101382.66;;;5.42;38.17
5755;BME280;2902;42.130;24.732;2023-02-11T07:46:20;101375.06;;;5.26;37.64
5755;BME280;2902;42.130;24.732;2023-02-11T07:48:48;101379.44;;;5.49;37.82
5755;BME280;2902;42.130;24.732;2023-02-11T07:51:18;101358.47;;;5.59;37.36
5755;BME280;2902;42.130;24.732;2023-02-11T07:53:46;101363.41;;;5.74;37.23
5755;BME280;2902;42.130;24.732;2023-02-11T07:56:14;101365.19;;;5.74;37.44
5755;BME280;2902;42.130;24.732;2023-02-11T07:58:41;101363.19;;;5.89;36.97
5755;BME280;2902;42.130;24.732;2023-02-11T08:01:10;101362.91;;;6.25;36.47
5755;BME280;2902;42.130;24.732;2023-02-11T08:03:38;101372.25;;;6.40;35.83
5755;BME280;2902;42.130;24.732;2023-02-11T08:06:09;101374.56;;;6.65;35.49
5755;BME280;2902;42.130;24.732;2023-02-11T08:08:36;101367.78;;;6.72;35.30
5755;BME280;2902;42.130;24.732;2023-02-11T08:11:06;101367.53;;;7.06;35.11
5755;BME280;2902;42.130;24.732;2023-02-11T08:13:34;101364.38;;;7.12;35.33
5755;BME280;2902;42.130;24.732;2023-02-11T08:16:01;101352.78;;;7.04;35.51
5755;BME280;2902;42.130;24.732;2023-02-11T08:18:28;101358.47;;;6.99;35.20
5755;BME280;2902;42.130;24.732;2023-02-11T08:20:55;101349.09;;;6.95;36.23
5755;BME280;2902;42.130;24.732;2023-02-11T08:23:23;101353.47;;;6.85;35.19
5755;BME280;2902;42.130;24.732;2023-02-11T08:25:50;101342.53;;;6.58;36.97
5755;BME280;2902;42.130;24.732;2023-02-11T08:28:16;101336.00;;;6.31;36.84
5755;BME280;2902;42.130;24.732;2023-02-11T08:30:43;101331.69;;;6.30;41.31
5755;BME280;2902;42.130;24.732;2023-02-11T08:33:10;101336.59;;;6.97;37.64
5755;BME280;2902;42.130;24.732;2023-02-11T08:35:36;101322.88;;;7.24;36.59
5755;BME280;2902;42.130;24.732;2023-02-11T08:38:04;101328.28;;;7.43;37.61
5755;BME280;2902;42.130;24.732;2023-02-11T08:40:32;101331.47;;;7.67;35.82
5755;BME280;2902;42.130;24.732;2023-02-11T08:42:59;101324.91;;;8.10;35.27
5755;BME280;2902;42.130;24.732;2023-02-11T08:45:26;101323.47;;;8.65;34.19
5755;BME280;2902;42.130;24.732;2023-02-11T08:47:52;101317.47;;;8.25;33.57
5755;BME280;2902;42.130;24.732;2023-02-11T08:50:19;101314.31;;;8.01;35.35
5755;BME280;2902;42.130;24.732;2023-02-11T08:52:46;101318.72;;;7.91;34.80
5755;BME280;2902;42.130;24.732;2023-02-11T08:55:13;101309.19;;;7.69;35.52
5755;BME280;2902;42.130;24.732;2023-02-11T08:57:41;101321.19;;;7.83;35.12
5755;BME280;2902;42.130;24.732;2023-02-11T09:00:09;101309.03;;;8.20;35.08
5755;BME280;2902;42.130;24.732;2023-02-11T09:02:36;101311.13;;;8.16;34.96
5755;BME280;2902;42.130;24.732;2023-02-11T09:05:03;101312.06;;;8.06;34.83
5755;BME280;2902;42.130;24.732;2023-02-11T09:07:29;101302.72;;;8.51;35.21
5755;BME280;2902;42.130;24.732;2023-02-11T09:09:56;101299.22;;;8.50;34.57
5755;BME280;2902;42.130;24.732;2023-02-11T09:12:23;101301.84;;;8.98;34.25
5755;BME280;2902;42.130;24.732;2023-02-11T09:14:51;101291.19;;;9.17;32.53
5755;BME280;2902;42.130;24.732;2023-02-11T09:17:18;101294.50;;;9.38;35.92
5755;BME280;2902;42.130;24.732;2023-02-11T09:19:44;101301.56;;;9.47;32.71
5755;BME280;2902;42.130;24.732;2023-02-11T09:22:11;101292.81;;;9.37;37.17
5755;BME280;2902;42.130;24.732;2023-02-11T09:24:38;101284.75;;;9.65;35.32
5755;BME280;2902;42.130;24.732;2023-02-11T09:27:05;101271.91;;;9.88;41.05
5755;BME280;2902;42.130;24.732;2023-02-11T09:29:32;101275.09;;;9.74;30.23
5755;BME280;2902;42.130;24.732;2023-02-11T09:32:00;101281.38;;;9.73;30.53
5755;BME280;2902;42.130;24.732;2023-02-11T09:34:26;101281.53;;;9.98;29.71
5755;BME280;2902;42.130;24.732;2023-02-11T09:36:53;101279.03;;;9.97;29.54
5755;BME280;2902;42.130;24.732;2023-02-11T09:39:20;101261.50;;;10.04;30.13
5755;BME280;2902;42.130;24.732;2023-02-11T09:44:56;101261.94;;;10.26;30.55
5755;BME280;2902;42.130;24.732;2023-02-11T09:47:28;101260.66;;;10.48;30.81
5755;BME280;2902;42.130;24.732;2023-02-11T09:50:00;101256.34;;;10.47;30.49
5755;BME280;2902;42.130;24.732;2023-02-11T09:52:36;101253.38;;;10.50;29.09
5755;BME280;2902;42.130;24.732;2023-02-11T09:55:16;101246.84;;;9.82;29.81
5755;BME280;2902;42.130;24.732;2023-02-11T09:57:43;101237.84;;;9.93;31.16
5755;BME280;2902;42.130;24.732;2023-02-11T10:00:18;101220.19;;;10.19;32.35
5755;BME280;2902;42.130;24.732;2023-02-11T10:02:57;101214.19;;;10.52;30.29
5755;BME280;2902;42.130;24.732;2023-02-11T10:05:38;101215.97;;;10.69;29.60
5755;BME280;2902;42.130;24.732;2023-02-11T10:08:13;101200.78;;;10.79;29.13
5755;BME280;2902;42.130;24.732;2023-02-11T10:10:49;101187.66;;;10.77;29.05
5755;BME280;2902;42.130;24.732;2023-02-11T10:13:36;101194.19;;;10.65;28.93
5755;BME280;2902;42.130;24.732;2023-02-11T10:16:16;101182.47;;;10.33;29.03
5755;BME280;2902;42.130;24.732;2023-02-11T10:19:11;101181.00;;;10.56;29.15
5755;BME280;2902;42.130;24.732;2023-02-11T10:21:44;101177.78;;;10.27;28.60
5755;BME280;2902;42.130;24.732;2023-02-11T10:24:15;101166.41;;;10.17;29.08
5755;BME280;2902;42.130;24.732;2023-02-11T10:26:43;101165.16;;;10.29;29.37
5755;BME280;2902;42.130;24.732;2023-02-11T10:29:20;101159.50;;;10.24;28.79
5755;BME280;2902;42.130;24.732;2023-02-11T10:31:50;101147.13;;;10.15;29.07
5755;BME280;2902;42.130;24.732;2023-02-11T10:34:20;101146.28;;;10.14;29.30
5755;BME280;2902;42.130;24.732;2023-02-11T10:36:47;101145.13;;;9.82;28.26
5755;BME280;2902;42.130;24.732;2023-02-11T10:39:15;101136.09;;;9.57;28.27
5755;BME280;2902;42.130;24.732;2023-02-11T10:41:44;101132.06;;;9.71;28.78
5755;BME280;2902;42.130;24.732;2023-02-11T10:44:23;101127.59;;;9.54;29.12
5755;BME280;2902;42.130;24.732;2023-02-11T10:46:51;101125.56;;;9.48;29.26
5755;BME280;2902;42.130;24.732;2023-02-11T10:49:36;101110.53;;;9.39;30.32
5755;BME280;2902;42.130;24.732;2023-02-11T10:52:13;101105.88;;;9.23;30.03
5755;BME280;2902;42.130;24.732;2023-02-11T10:54:40;101101.88;;;9.37;30.08
5755;BME280;2902;42.130;24.732;2023-02-11T10:57:17;101108.44;;;9.60;29.68
5755;BME280;2902;42.130;24.732;2023-02-11T10:59:44;101105.88;;;9.68;28.84
5755;BME280;2902;42.130;24.732;2023-02-11T11:02:20;101089.34;;;9.74;29.08
5755;BME280;2902;42.130;24.732;2023-02-11T11:04:55;101077.19;;;9.71;28.47
5755;BME280;2902;42.130;24.732;2023-02-11T11:07:24;101077.28;;;9.79;27.25
5755;BME280;2902;42.130;24.732;2023-02-11T11:09:54;101073.56;;;9.90;28.05
5755;BME280;2902;42.130;24.732;2023-02-11T11:12:32;101068.41;;;9.71;27.44
5755;BME280;2902;42.130;24.732;2023-02-11T11:15:10;101065.81;;;9.79;27.61
5755;BME280;2902;42.130;24.732;2023-02-11T11:17:40;101053.16;;;9.73;27.99
5755;BME280;2902;42.130;24.732;2023-02-11T11:20:20;101048.06;;;9.97;27.52
5755;BME280;2902;42.130;24.732;2023-02-11T11:22:48;101047.69;;;10.09;27.54
5755;BME280;2902;42.130;24.732;2023-02-11T11:25:24;101044.00;;;10.28;26.88
5755;BME280;2902;42.130;24.732;2023-02-11T11:27:53;101033.72;;;10.25;26.40
5755;BME280;2902;42.130;24.732;2023-02-11T11:30:22;101030.78;;;9.93;26.02
5755;BME280;2902;42.130;24.732;2023-02-11T11:32:50;101033.25;;;9.69;26.48
5755;BME280;2902;42.130;24.732;2023-02-11T11:35:24;101014.28;;;9.64;26.33
5755;BME280;2902;42.130;24.732;2023-02-11T11:37:53;101013.06;;;9.76;26.43
5755;BME280;2902;42.130;24.732;2023-02-11T11:40:23;101014.09;;;9.83;26.69
5755;BME280;2902;42.130;24.732;2023-02-11T11:43:14;101002.00;;;9.63;26.34
5755;BME280;2902;42.130;24.732;2023-02-11T11:45:52;101004.13;;;9.07;26.35
5755;BME280;2902;42.130;24.732;2023-02-11T11:48:22;101000.50;;;9.43;26.72
5755;BME280;2902;42.130;24.732;2023-02-11T11:50:55;100988.78;;;9.71;26.47
5755;BME280;2902;42.130;24.732;2023-02-11T11:53:28;100980.28;;;9.85;25.94
5755;BME280;2902;42.130;24.732;2023-02-11T11:56:01;100989.00;;;9.77;25.33
5755;BME280;2902;42.130;24.732;2023-02-11T11:58:30;100977.28;;;9.80;25.92
5755;BME280;2902;42.130;24.732;2023-02-11T12:01:09;100975.28;;;9.82;25.09
5755;BME280;2902;42.130;24.732;2023-02-11T12:04:04;100971.84;;;9.64;25.39
5755;BME280;2902;42.130;24.732;2023-02-11T12:06:45;100963.22;;;9.87;25.86
5755;BME280;2902;42.130;24.732;2023-02-11T12:09:23;100956.59;;;10.09;25.02
5755;BME280;2902;42.130;24.732;2023-02-11T12:12:04;100964.00;;;10.31;25.19
5755;BME280;2902;42.130;24.732;2023-02-11T12:14:42;100954.66;;;10.52;24.84
5755;BME280;2902;42.130;24.732;2023-02-11T12:17:25;100945.88;;;10.60;24.49
5755;BME280;2902;42.130;24.732;2023-02-11T12:20:18;100945.84;;;10.52;24.59
5755;BME280;2902;42.130;24.732;2023-02-11T12:22:59;100944.03;;;10.52;24.25
5755;BME280;2902;42.130;24.732;2023-02-11T12:25:35;100935.72;;;10.55;24.73
5755;BME280;2902;42.130;24.732;2023-02-11T12:28:19;100937.16;;;10.08;24.25
5755;BME280;2902;42.130;24.732;2023-02-11T12:31:14;100924.75;;;10.09;24.05
5755;BME280;2902;42.130;24.732;2023-02-11T12:34:07;100935.66;;;10.06;24.65
5755;BME280;2902;42.130;24.732;2023-02-11T12:36:55;100930.34;;;10.06;24.68
5755;BME280;2902;42.130;24.732;2023-02-11T12:39:32;100928.13;;;10.01;24.36
5755;BME280;2902;42.130;24.732;2023-02-11T12:42:13;100934.22;;;10.11;24.43
5755;BME280;2902;42.130;24.732;2023-02-11T12:45:12;100922.78;;;10.19;23.87
5755;BME280;2902;42.130;24.732;2023-02-11T12:47:56;100926.56;;;9.91;24.32
5755;BME280;2902;42.130;24.732;2023-02-11T12:50:29;100920.22;;;9.84;24.74
5755;BME280;2902;42.130;24.732;2023-02-11T12:53:11;100910.97;;;9.88;24.09
5755;BME280;2902;42.130;24.732;2023-02-11T12:55:48;100916.69;;;10.01;24.58
5755;BME280;2902;42.130;24.732;2023-02-11T12:58:20;100908.47;;;10.12;23.82
5755;BME280;2902;42.130;24.732;2023-02-11T13:00:52;100908.19;;;10.23;23.51
5755;BME280;2902;42.130;24.732;2023-02-11T13:03:23;100902.84;;;10.15;23.99
5755;BME280;2902;42.130;24.732;2023-02-11T13:05:56;100902.53;;;10.18;23.54
5755;BME280;2902;42.130;24.732;2023-02-11T13:08:27;100903.56;;;10.25;24.09
5755;BME280;2902;42.130;24.732;2023-02-11T13:11:01;100896.72;;;10.22;23.63
5755;BME280;2902;42.130;24.732;2023-02-11T13:13:32;100888.97;;;10.29;23.62
5755;BME280;2902;42.130;24.732;2023-02-11T13:16:02;100892.22;;;10.15;24.29
5755;BME280;2902;42.130;24.732;2023-02-11T13:18:43;100884.00;;;10.00;23.92
5755;BME280;2902;42.130;24.732;2023-02-11T13:21:32;100887.06;;;9.88;23.63
5755;BME280;2902;42.130;24.732;2023-02-11T13:24:08;100891.03;;;9.84;23.15
5755;BME280;2902;42.130;24.732;2023-02-11T13:26:45;100884.88;;;9.75;23.43
5755;BME280;2902;42.130;24.732;2023-02-11T13:29:20;100872.44;;;9.84;24.21